AirNav   MODERNIZE NOT PRIVATIZE ATC
 
 383 users online  

KCRT Z M Jack Stell Field Airport
Crossett, Arkansas, USA


FAA INFORMATION EFFECTIVE 17 AUGUST 2017

Location

FAA Identifier: CRT
Lat/Long: 33-10-42.0000N / 091-52-48.7000W
33-10.700000N / 091-52.811667W
33.1783333 / -91.8801944
(estimated)
Elevation: 183.5 ft. / 55.9 m (surveyed)
Variation: 02E (2005)
From city: 5 miles NE of CROSSETT, AR
Time zone: UTC -5 (UTC -6 during Standard Time)
Zip code: 71635

Airport Operations

Airport use: Open to the public
Activation date: 06/1951
Control tower: no
ARTCC: MEMPHIS CENTER
FSS: JONESBORO FLIGHT SERVICE STATION
NOTAMs facility: JBR (NOTAM-D service available)
Attendance: MON-FRI IREG
Wind indicator: lighted
Segmented circle: yes
Lights: SS-SR
Beacon: white-green (lighted land airport)
Operates sunset to sunrise.

Airport Communications

CTAF/UNICOM: 122.8
  • APCH/DEP SERVICE PRVDD BY MEMPHIS ARTCC ON FREQS 135.875/269.35 (GREENVILLE RCAG & PINE BLUFF RCAG).

Nearby radio navigation aids

VOR radial/distance  VOR name  Freq  Var
MONr196/24.5MONTICELLO VOR/DME111.6004E

 
NDB name  Hdg/Dist  Freq  Var  ID
BASTROP357/25.432903EBQP -... --.- .--.

Airport Services

Fuel available: 100LL JET-A
SELF SERVE FUEL AVBL 24 HRS WITH CREDIT CARD.
Parking: tiedowns
Bottled oxygen: NONE
Bulk oxygen: NONE

Runway Information

Runway 5/23

Dimensions: 5010 x 75 ft. / 1527 x 23 m
Surface: asphalt, in fair condition
Weight bearing capacity: 
Single wheel: 19.0
Runway edge lights: medium intensity
RUNWAY 5  RUNWAY 23
Latitude: 33-10.444497N33-10.955968N
Longitude: 091-53.196535W091-52.425142W
Elevation: 177.7 ft.183.1 ft.
Gradient: 0.2%0.2%
Traffic pattern: leftleft
Runway heading: 050 magnetic, 052 true230 magnetic, 232 true
Markings: basic, in good conditionbasic, in good condition
Visual slope indicator: 2-light PAPI on left (3.25 degrees glide path)2-light PAPI on left (3.25 degrees glide path)
Touchdown point: yes, no lightsyes, no lights
Obstructions: 45 ft. trees, 600 ft. from runway, 300 ft. left of centerline, 8:1 slope to clearnone

Airport Ownership and Management from official FAA records

Ownership: Publicly-owned
Owner: CITY OF CROSSETT
201 MAIN
CROSSETT, AR 71635
Phone 870-364-4131
Manager: RUSTY ATCHISON
PO BOX 637
CROSSETT, AR 71635
Phone 870-304-3313

Airport Operational Statistics

Aircraft based on the field: 16
Single engine airplanes: 15
Multi engine airplanes: 1
    
Aircraft operations: avg 45/day *
72% local general aviation
27% transient general aviation
<1% military
<1% air taxi
* for 12-month period ending 31 August 2016

Additional Remarks

MIDFIELD TWY CLSD TO ACFT OVER 6000 LBS.

Instrument Procedures

NOTE: All procedures below are presented as PDF files. If you need a reader for these files, you should download the free Adobe Reader.

NOT FOR NAVIGATION. Please procure official charts for flight.
FAA instrument procedures published for use between 17 August 2017 at 0901Z and 14 September 2017 at 0900Z.

 
IAPs - Instrument Approach Procedures
RNAV (GPS) RWY 23 **CHANGED**   download (189KB)
VOR-A **NEW**   download (145KB)
NOTE: Special Take-Off Minimums/Departure Procedures apply   download (131KB)

Other nearby airports with instrument procedures:

3M9 - Warren Municipal Airport (25 nm NW)
KBQP - Morehouse Memorial Airport (25 nm S)
KLLQ - Monticello Municipal Airport/Ellis Field (28 nm N)
M32 - Lake Village Municipal Airport (30 nm E)
7M1 - Mc Gehee Municipal Airport (37 nm NE)
 
Loc | Ops | Rwys | IFR | FBO | Links
Com | Nav | Svcs | Stats | Notes

Fly Arkansas
AirBoss

 
Area around KCRT (Z M Jack Stell Field Airport)
 
Road maps at: MapQuest Bing Google
 
Aerial photo
WARNING: Photo may not be current or correct
Aerial photo of KCRT (Z M Jack Stell Field Airport)
Photo courtesy of the Arkansas Department of Aeronautics
Taken in the Spring of 2007

Do you have a better or more recent aerial photo of Z M Jack Stell Field Airport that you would like to share? If so, please send us your photo.

 
Sectional chart

 
Airport distance calculator
Flying to Z M Jack Stell Field Airport? Find the distance to fly.

From to KCRT

Sunrise and sunset
Times for 24-Aug-2017
 Local
(UTC-5)
 Zulu
(UTC)
Morning civil twilight06:1211:12
Sunrise06:3711:37
Sunset19:4200:42
Evening civil twilight20:0801:08

Current date and time
Zulu (UTC)  24-Aug-2017 10:19:44
Local (UTC-5)  24-Aug-2017 05:19:44
 
METAR
KBQP 
25nm S 
240955Z AUTO 00000KT 7SM CLR 22/22 A2995 RMK AO2 T02230220
KLLQ 
28nm N 
240953Z AUTO 02004KT 10SM FEW090 22/19 A2997 RMK AO2 SLP146 T02170189
KMLU 
40nm S 
240953Z AUTO 04006KT 10SM FEW023 23/22 A2994 RMK AO2 SLP138 T02330222
KELD 
47nm W 
240953Z AUTO 02005KT 10SM CLR 22/20 A2997 RMK AO2 SLP143 T02220200
KGLH 
49nm NE 
240953Z AUTO 03005KT 10SM SCT050 21/18 A2996 RMK AO2 SLP149 T02110183
TAF
KLLQ 
28nm N 
240532Z 2406/2506 04005KT P6SM BKN050 BKN250 FM241300 05007KT P6SM SCT250 FM250000 08004KT P6SM FEW250
NOTAMs
Click for the latest NOTAMs
NOTAMs are issued by the DoD/FAA and will open in a separate window not controlled by AirNav.

 

 
 

FBO, Fuel Providers, and Aircraft Ground Support

  
 Business Name 
 
 Contact 
 
 Services / Description 
 
Fuel Prices
 
Comments
  
Crossett Airport Commission 870-304-3313
[email]
Aviation fuel, Aircraft parking (ramp or tiedown), Hangar leasing / sales, Passenger terminal and lounge, Pilots lounge / snooze room, Public telephone, ...

More info about Crossett Airport Commission
independent
100LL Jet A
SS $3.90 $3.00 
 Updated 21-Aug-2017
 
   2 read write
SS=Self service
Update Fuel Prices
 

Would you like to see your business listed on this page?

 If your business provides an interesting product or service to pilots, flight crews, aircraft, or users of the Z M Jack Stell Field Airport, you should consider listing it here.  To start the listing process, click on the button below
 
Add a business
 

Other Pages about Z M Jack Stell Field Airport

Update a link
 
Copyright © AirNav, LLC. All rights reserved. Privacy Policy  Contact